Terminal Aerodrome Forecast
Issued by NWS

Home | Current Version | Previous Version | Text Only | Print | Product List | Glossary On
Versions: 1 2 3 4 5 6 7 8 9 10 11 12 13 14 15 16
000
FTUS43 KMPX 291720
TAFRWF
TAF
KRWF 291720Z 2918/3018 28012G18KT P6SM SCT050
      TEMPO 2918/2922 BKN050
     FM300200 27004KT P6SM SKC
     FM301000 29005KT P6SM SCT200=

USA.gov is the U.S. government's official web portal to all federal, state and local government web resources and services.